createdAt,value
2023-04-15T00:02:19.208Z,90.59
2023-04-15T00:04:47.716Z,90.58
2023-04-15T00:07:18.171Z,90.80
2023-04-15T00:09:46.953Z,90.71
2023-04-15T00:12:14.960Z,90.84
2023-04-15T00:14:43.615Z,91.05
2023-04-15T00:17:11.692Z,91.18
2023-04-15T00:19:41.085Z,91.23
2023-04-15T00:22:13.755Z,91.36
2023-04-15T00:24:43.030Z,91.25
2023-04-15T00:27:11.547Z,91.15
2023-04-15T00:29:39.659Z,91.03
2023-04-15T00:32:08.044Z,91.35
2023-04-15T00:34:37.085Z,91.77
2023-04-15T00:37:05.062Z,92.20
2023-04-15T00:39:34.286Z,92.71
2023-04-15T00:42:03.208Z,92.88
2023-04-15T00:44:31.356Z,93.26
2023-04-15T00:47:00.628Z,93.71
2023-04-15T00:49:30.874Z,94.27
2023-04-15T00:51:58.808Z,94.19
2023-04-15T00:54:26.994Z,94.59
2023-04-15T00:56:54.867Z,94.61
2023-04-15T00:59:23.155Z,94.61
2023-04-15T01:01:52.080Z,94.59
2023-04-15T01:04:21.023Z,94.37
2023-04-15T01:06:48.996Z,94.50
2023-04-15T01:09:17.695Z,94.50
2023-04-15T01:11:51.133Z,94.05
2023-04-15T01:14:19.783Z,94.05
2023-04-15T01:16:47.785Z,94.21
2023-04-15T01:19:17.433Z,94.05
2023-04-15T01:21:45.474Z,94.04
2023-04-15T01:24:13.430Z,94.05
2023-04-15T01:26:44.577Z,93.85
2023-04-15T01:29:14.106Z,93.09
2023-04-15T01:31:54.073Z,92.72
2023-04-15T01:34:22.345Z,92.73
2023-04-15T01:36:51.274Z,92.49
2023-04-15T01:39:19.555Z,92.02
2023-04-15T01:41:48.701Z,91.78
2023-04-15T01:44:17.759Z,91.27
2023-04-15T01:46:45.777Z,91.01
2023-04-15T01:49:13.634Z,90.90
2023-04-15T01:51:41.806Z,90.67
2023-04-15T01:54:10.184Z,90.50
2023-04-15T01:56:43.172Z,90.97
2023-04-15T01:59:11.094Z,91.01
2023-04-15T02:01:39.790Z,90.99
2023-04-15T02:04:09.602Z,90.87
2023-04-15T02:06:37.514Z,91.11
2023-04-15T02:09:10.698Z,91.29
2023-04-15T02:11:41.423Z,91.50
2023-04-15T02:14:10.426Z,91.47
2023-04-15T02:16:38.341Z,91.26
2023-04-15T02:19:09.739Z,90.55
2023-04-15T02:21:38.733Z,89.97
2023-04-15T02:24:07.215Z,89.99
2023-04-15T02:26:37.807Z,90.14
2023-04-15T02:29:06.971Z,90.01
2023-04-15T02:31:38.183Z,90.33
2023-04-15T02:34:09.197Z,90.47
2023-04-15T02:36:39.204Z,90.79
2023-04-15T02:39:07.108Z,90.73
2023-04-15T02:41:37.945Z,90.84
2023-04-15T02:44:08.283Z,90.77
2023-04-15T02:46:37.470Z,90.55
2023-04-15T02:49:06.574Z,90.56
2023-04-15T02:51:35.646Z,90.83
2023-04-15T02:54:03.623Z,90.99
2023-04-15T02:56:32.532Z,91.24
2023-04-15T02:59:01.145Z,91.40
2023-04-15T03:01:29.295Z,91.17
2023-04-15T03:03:57.482Z,91.26
2023-04-15T03:06:26.372Z,91.10
2023-04-15T03:08:57.248Z,91.19
2023-04-15T03:11:26.561Z,91.35
2023-04-15T03:13:54.650Z,91.19
2023-04-15T03:16:28.523Z,90.95
2023-04-15T03:18:57.373Z,90.93
2023-04-15T03:21:26.125Z,91.24
2023-04-15T03:23:54.610Z,91.42
2023-04-15T03:26:29.460Z,91.33
2023-04-15T03:29:00.894Z,91.52
2023-04-15T03:31:31.226Z,91.50
2023-04-15T03:33:59.904Z,91.79
2023-04-15T03:36:29.683Z,91.72
2023-04-15T03:38:59.861Z,91.55
2023-04-15T03:41:28.990Z,91.66
2023-04-15T03:43:59.304Z,92.35
2023-04-15T03:46:27.828Z,92.20
2023-04-15T03:48:56.223Z,92.04
2023-04-15T03:51:26.885Z,92.14
2023-04-15T03:53:54.942Z,92.20
2023-04-15T03:56:22.908Z,92.29
2023-04-15T03:58:51.573Z,92.27
2023-04-15T04:01:19.633Z,92.29
2023-04-15T04:03:48.322Z,92.04
2023-04-15T04:06:20.352Z,92.13
2023-04-15T04:08:49.705Z,92.27
2023-04-15T04:11:17.661Z,92.62
2023-04-15T04:13:48.156Z,92.38
2023-04-15T04:16:16.704Z,92.07
2023-04-15T04:18:45.010Z,92.53
2023-04-15T04:21:13.069Z,92.74
2023-04-15T04:23:42.949Z,92.54
2023-04-15T04:26:11.207Z,92.02
2023-04-15T04:28:42.111Z,91.85
2023-04-15T04:31:10.949Z,91.75
2023-04-15T04:33:39.534Z,91.98
2023-04-15T04:36:07.704Z,92.12
2023-04-15T04:38:41.002Z,92.30
2023-04-15T04:41:09.787Z,92.27
2023-04-15T04:43:37.949Z,92.02
2023-04-15T04:46:06.373Z,91.80
2023-04-15T04:48:35.291Z,91.89
2023-04-15T04:51:03.424Z,91.81
2023-04-15T04:53:33.816Z,92.10
2023-04-15T04:56:01.708Z,92.30
2023-04-15T04:58:29.868Z,92.18
2023-04-15T05:01:00.127Z,92.10
2023-04-15T05:03:28.246Z,92.05
2023-04-15T05:05:56.555Z,92.17
2023-04-15T05:08:29.782Z,92.43
2023-04-15T05:10:58.389Z,92.47
2023-04-15T05:13:26.425Z,92.17
2023-04-15T05:15:57.120Z,91.30
2023-04-15T05:18:31.089Z,90.72
2023-04-15T05:20:59.301Z,90.94
2023-04-15T05:23:27.378Z,91.18
2023-04-15T05:25:55.758Z,91.75
2023-04-15T05:28:25.693Z,91.78
2023-04-15T05:30:53.858Z,91.07
2023-04-15T05:33:23.313Z,90.97
2023-04-15T05:35:52.438Z,91.33
2023-04-15T05:38:20.605Z,90.86
2023-04-15T05:40:48.853Z,90.59
2023-04-15T05:43:19.546Z,90.64
2023-04-15T05:45:51.403Z,91.17
2023-04-15T05:48:19.370Z,91.07
2023-04-15T05:50:47.467Z,90.53
2023-04-15T05:53:16.271Z,90.33
2023-04-15T05:55:45.106Z,90.35
2023-04-15T05:58:13.252Z,90.73
2023-04-15T06:00:41.458Z,90.56
2023-04-15T06:03:11.968Z,90.07
2023-04-15T06:05:40.755Z,90.59
2023-04-15T06:08:08.787Z,91.14
2023-04-15T06:10:37.213Z,91.00
2023-04-15T06:13:07.120Z,90.87
2023-04-15T06:15:35.947Z,90.69
2023-04-15T06:18:04.386Z,90.65
2023-04-15T06:20:36.780Z,89.78
2023-04-15T06:23:04.844Z,89.55
2023-04-15T06:25:32.835Z,90.02
2023-04-15T06:28:01.526Z,90.29
2023-04-15T06:30:29.911Z,90.52
2023-04-15T06:32:58.383Z,90.47
2023-04-15T06:35:27.579Z,90.74
2023-04-15T06:37:55.504Z,90.82
2023-04-15T06:40:23.399Z,90.21
2023-04-15T06:42:51.266Z,89.67
2023-04-15T06:45:19.326Z,89.64
2023-04-15T06:47:48.523Z,89.86
2023-04-15T06:50:16.636Z,89.56
2023-04-15T06:52:45.704Z,89.42
2023-04-15T06:55:14.910Z,88.73
2023-04-15T06:57:42.964Z,89.18
2023-04-15T07:00:13.624Z,88.86
2023-04-15T07:02:42.777Z,87.60
2023-04-15T07:05:11.448Z,87.33
2023-04-15T07:07:42.283Z,87.48
2023-04-15T07:10:12.181Z,87.15
2023-04-15T07:12:40.104Z,86.84
2023-04-15T07:15:08.827Z,86.74
2023-04-15T07:17:43.528Z,85.83
2023-04-15T07:20:12.918Z,85.52
2023-04-15T07:22:41.475Z,85.40
2023-04-15T07:25:09.874Z,85.31
2023-04-15T07:27:39.808Z,85.61
2023-04-15T07:30:09.362Z,84.72
2023-04-15T07:32:37.749Z,85.12
2023-04-15T07:35:06.107Z,84.98
2023-04-15T07:37:34.653Z,84.21
2023-04-15T07:40:04.832Z,83.79
2023-04-15T07:42:35.287Z,83.46
2023-04-15T07:45:04.222Z,83.84
2023-04-15T07:47:32.666Z,84.48
2023-04-15T07:50:03.404Z,85.06
2023-04-15T07:52:39.206Z,84.68
2023-04-15T07:55:08.557Z,85.20
2023-04-15T07:57:40.034Z,84.99
2023-04-15T08:00:10.148Z,85.48
2023-04-15T08:02:41.850Z,85.78
2023-04-15T08:05:10.833Z,85.70
2023-04-15T08:07:39.054Z,85.51
2023-04-15T08:10:07.722Z,85.82
2023-04-15T08:12:35.942Z,86.44
2023-04-15T08:15:09.256Z,86.47
2023-04-15T08:17:39.706Z,86.49
2023-04-15T08:20:08.796Z,86.51
2023-04-15T08:22:36.754Z,86.29
2023-04-15T08:25:07.435Z,86.34
2023-04-15T08:27:39.576Z,86.41
2023-04-15T08:30:10.172Z,86.96
2023-04-15T08:32:38.837Z,86.98
2023-04-15T08:35:08.087Z,87.17
2023-04-15T08:37:35.973Z,85.38
2023-04-15T08:40:04.820Z,85.03
2023-04-15T08:42:46.950Z,85.03
2023-04-15T08:45:19.394Z,84.47
2023-04-15T08:47:48.520Z,83.87
2023-04-15T08:50:16.650Z,84.07
2023-04-15T08:52:55.945Z,83.65
2023-04-15T08:55:26.394Z,83.11
2023-04-15T08:57:56.236Z,82.68
2023-04-15T09:00:27.166Z,83.28
2023-04-15T09:02:56.632Z,82.88
2023-04-15T09:05:24.583Z,82.69
2023-04-15T09:07:52.798Z,82.50
2023-04-15T09:10:20.850Z,81.78
2023-04-15T09:12:48.992Z,81.91
2023-04-15T09:15:17.078Z,82.70
2023-04-15T09:17:50.732Z,83.10
2023-04-15T09:20:22.293Z,82.90
2023-04-15T09:22:52.490Z,82.54
2023-04-15T09:25:24.845Z,82.58
2023-04-15T09:27:55.687Z,83.27
2023-04-15T09:30:25.392Z,83.47
2023-04-15T09:32:58.037Z,83.28
2023-04-15T09:35:27.665Z,82.99
2023-04-15T09:38:09.957Z,83.08
2023-04-15T09:40:39.590Z,82.76
2023-04-15T09:43:08.694Z,82.97
2023-04-15T09:45:36.577Z,83.34
2023-04-15T09:48:24.813Z,83.87
2023-04-15T09:50:57.357Z,84.25
2023-04-15T09:53:25.922Z,84.37
2023-04-15T09:55:55.574Z,84.88
2023-04-15T09:58:30.799Z,85.07
2023-04-15T10:00:59.525Z,85.06
2023-04-15T10:03:34.422Z,84.20
2023-04-15T10:06:03.894Z,84.10
2023-04-15T10:08:35.033Z,83.07
2023-04-15T10:11:03.377Z,83.02
2023-04-15T10:13:36.694Z,83.36
2023-04-15T10:16:11.457Z,83.47
2023-04-15T10:18:42.915Z,83.90
2023-04-15T10:21:10.991Z,83.27
2023-04-15T10:23:39.251Z,82.67
2023-04-15T10:26:07.091Z,82.40
2023-04-15T10:28:35.070Z,82.43
2023-04-15T10:31:03.058Z,82.08
2023-04-15T10:33:31.145Z,82.05
2023-04-15T10:35:59.024Z,82.27
2023-04-15T10:38:40.457Z,82.09
2023-04-15T10:41:21.896Z,82.11
2023-04-15T10:44:09.707Z,82.87
2023-04-15T10:46:44.680Z,83.02
2023-04-15T10:49:14.267Z,83.46
2023-04-15T10:51:44.445Z,83.87
2023-04-15T10:54:16.546Z,83.50
2023-04-15T10:56:45.210Z,83.20
2023-04-15T10:59:13.812Z,83.27
2023-04-15T11:02:00.467Z,83.46
2023-04-15T11:04:51.603Z,83.56
2023-04-15T11:07:46.971Z,83.72
2023-04-15T11:10:18.255Z,83.99
2023-04-15T11:12:51.188Z,84.27
2023-04-15T11:15:40.684Z,84.75
2023-04-15T11:18:26.275Z,84.57
2023-04-15T11:20:59.505Z,83.81
2023-04-15T11:23:34.170Z,83.36
2023-04-15T11:26:06.946Z,83.14
2023-04-15T11:28:36.712Z,83.17
2023-04-15T11:31:15.276Z,83.38
2023-04-15T11:33:54.368Z,82.57
2023-04-15T11:36:27.850Z,82.25
2023-04-15T11:40:58.394Z,83.05
2023-04-15T11:43:26.906Z,83.22
2023-04-15T11:46:00.169Z,83.05
2023-04-15T11:48:29.695Z,82.97
2023-04-15T11:51:07.895Z,83.02
2023-04-15T11:53:41.386Z,83.60
2023-04-15T11:56:10.657Z,84.11
2023-04-15T11:58:39.381Z,84.43
2023-04-15T12:01:07.564Z,84.39
2023-04-15T12:03:43.320Z,84.43
2023-04-15T12:06:24.728Z,84.52
2023-04-15T12:08:59.450Z,85.20
2023-04-15T12:11:27.278Z,85.39
2023-04-15T12:14:09.666Z,85.85
2023-04-15T12:16:47.936Z,85.88
2023-04-15T12:19:23.458Z,86.31
2023-04-15T12:21:53.043Z,86.98
2023-04-15T12:24:23.105Z,87.23
2023-04-15T12:26:53.366Z,86.93
2023-04-15T12:29:25.434Z,87.13
2023-04-15T12:32:04.996Z,86.96
2023-04-15T12:34:39.769Z,86.29
2023-04-15T12:37:12.292Z,85.63
2023-04-15T12:39:41.614Z,85.83
2023-04-15T12:42:09.700Z,85.77
2023-04-15T12:44:38.239Z,85.84
2023-04-15T12:47:08.738Z,86.46
2023-04-15T12:49:37.797Z,85.87
2023-04-15T12:52:06.579Z,85.92
2023-04-15T12:54:36.153Z,85.82
2023-04-15T12:57:06.813Z,85.79
2023-04-15T12:59:36.150Z,86.19
2023-04-15T13:02:04.269Z,86.07
2023-04-15T13:04:33.389Z,86.15
2023-04-15T13:07:02.088Z,85.64
2023-04-15T13:09:31.576Z,85.44
2023-04-15T13:11:59.744Z,85.49
2023-04-15T13:14:29.846Z,85.85
2023-04-15T13:16:58.199Z,85.80
2023-04-15T13:19:26.772Z,85.80
2023-04-15T13:21:54.688Z,85.30
2023-04-15T13:24:22.772Z,84.86
2023-04-15T13:26:50.706Z,85.62
2023-04-15T13:29:20.389Z,86.41
2023-04-15T13:31:48.281Z,85.73
2023-04-15T13:34:16.408Z,85.49
2023-04-15T13:36:44.356Z,85.96
2023-04-15T13:39:12.301Z,86.04
2023-04-15T13:41:40.497Z,85.02
2023-04-15T13:44:08.328Z,85.10
2023-04-15T13:46:37.909Z,85.05
2023-04-15T13:49:06.193Z,85.46
2023-04-15T13:51:36.929Z,85.41
2023-04-15T13:54:05.454Z,85.88
2023-04-15T13:56:34.200Z,85.88
2023-04-15T13:59:03.263Z,86.05
2023-04-15T14:01:31.298Z,85.68
2023-04-15T14:03:59.322Z,85.61
2023-04-15T14:06:29.103Z,85.69
2023-04-15T14:08:57.046Z,85.42
2023-04-15T14:11:25.006Z,85.58
2023-04-15T14:13:52.911Z,85.72
2023-04-15T14:16:21.240Z,85.58
2023-04-15T14:18:49.316Z,85.81
2023-04-15T14:21:17.186Z,86.19
2023-04-15T14:23:45.102Z,86.67
2023-04-15T14:26:14.272Z,86.56
2023-04-15T14:28:45.098Z,86.49
2023-04-15T14:31:13.607Z,86.69
2023-04-15T14:33:41.953Z,87.02
2023-04-15T14:36:09.899Z,87.15
2023-04-15T14:38:41.124Z,87.17
2023-04-15T14:41:09.920Z,87.16
2023-04-15T14:43:39.468Z,87.29
2023-04-15T14:46:08.692Z,87.69
2023-04-15T14:48:36.937Z,87.67
2023-04-15T14:51:05.807Z,87.72
2023-04-15T14:53:33.752Z,87.80
2023-04-15T14:56:01.799Z,87.64
2023-04-15T14:58:30.040Z,87.66
2023-04-15T15:00:58.305Z,87.66
2023-04-15T15:03:26.520Z,87.88
2023-04-15T15:05:54.695Z,88.08
2023-04-15T15:08:22.662Z,88.58
2023-04-15T15:10:50.597Z,89.29
2023-04-15T15:13:19.517Z,89.80
2023-04-15T15:15:49.784Z,89.91
2023-04-15T15:18:19.315Z,90.41
2023-04-15T15:20:47.741Z,90.42
2023-04-15T15:23:16.546Z,90.47
2023-04-15T15:25:44.565Z,91.07
2023-04-15T15:28:12.762Z,91.51
2023-04-15T15:30:41.115Z,91.98
2023-04-15T15:33:09.096Z,92.79
2023-04-15T15:35:37.347Z,93.43
2023-04-15T15:38:06.562Z,94.16
2023-04-15T15:40:35.438Z,94.74
2023-04-15T15:43:04.017Z,95.02
2023-04-15T15:45:32.186Z,95.24
2023-04-15T15:48:01.504Z,95.54
2023-04-15T15:50:30.642Z,95.80
2023-04-15T15:52:59.082Z,96.12
2023-04-15T15:55:27.642Z,96.13
2023-04-15T15:57:55.551Z,96.56
2023-04-15T16:00:23.817Z,96.74
2023-04-15T16:03:06.730Z,96.86
2023-04-15T16:05:36.230Z,97.31
2023-04-15T16:08:04.438Z,97.71
2023-04-15T16:10:33.030Z,98.34
2023-04-15T16:13:02.088Z,98.92
2023-04-15T16:15:30.324Z,99.32
2023-04-15T16:17:58.566Z,99.78
2023-04-15T16:20:28.247Z,100.00
2023-04-15T16:22:57.188Z,100.00
2023-04-15T16:25:25.188Z,100.00
2023-04-15T16:28:01.342Z,100.00
2023-04-15T16:30:37.829Z,100.00
2023-04-15T16:33:06.592Z,100.00
2023-04-15T16:35:34.990Z,100.00
2023-04-15T16:38:03.280Z,100.00
2023-04-15T16:40:31.252Z,100.00
2023-04-15T16:42:59.092Z,100.00
2023-04-15T16:45:27.115Z,100.00
2023-04-15T16:47:56.776Z,100.00
2023-04-15T16:50:25.168Z,100.00
2023-04-15T16:52:53.051Z,100.00
2023-04-15T16:55:21.033Z,100.00
2023-04-15T16:58:02.962Z,100.00
2023-04-15T17:00:32.311Z,100.00
2023-04-15T17:03:01.543Z,100.00
2023-04-15T17:05:31.169Z,100.00
2023-04-15T17:07:59.367Z,100.00
2023-04-15T17:10:27.870Z,100.00
2023-04-15T17:12:56.862Z,100.00
2023-04-15T17:15:25.136Z,100.00
2023-04-15T17:17:53.549Z,100.00
2023-04-15T17:20:21.804Z,100.00
2023-04-15T17:22:49.755Z,100.00
2023-04-15T17:25:18.250Z,100.00
2023-04-15T17:27:46.189Z,100.00
2023-04-15T17:30:14.154Z,100.00
2023-04-15T17:32:43.945Z,100.00
2023-04-15T17:35:12.040Z,100.00
2023-04-15T17:37:41.164Z,100.00
2023-04-15T17:40:09.599Z,100.00
2023-04-15T17:42:37.649Z,100.00
2023-04-15T17:45:06.518Z,100.00
2023-04-15T17:47:34.796Z,100.00
2023-04-15T17:50:02.770Z,100.00
2023-04-15T17:52:30.940Z,100.00
2023-04-15T17:54:59.026Z,100.00
2023-04-15T17:57:27.044Z,100.00
2023-04-15T17:59:54.985Z,100.00
2023-04-15T18:02:23.117Z,100.00
2023-04-15T18:04:51.951Z,100.00
2023-04-15T18:07:20.344Z,100.00
2023-04-15T18:09:50.613Z,100.00
2023-04-15T18:12:18.853Z,100.00
2023-04-15T18:14:46.916Z,100.00
2023-04-15T18:17:15.037Z,100.00
2023-04-15T18:19:43.682Z,100.00
2023-04-15T18:22:14.932Z,100.00
2023-04-15T18:24:43.593Z,100.00
2023-04-15T18:27:11.947Z,100.00
2023-04-15T18:29:40.064Z,100.00
2023-04-15T18:32:08.264Z,100.00
2023-04-15T18:34:36.724Z,100.00
2023-04-15T18:37:05.626Z,100.00
2023-04-15T18:39:34.838Z,100.00
2023-04-15T18:42:03.236Z,100.00
2023-04-15T18:44:31.680Z,100.00
2023-04-15T18:46:59.944Z,100.00
2023-04-15T18:49:28.456Z,100.00
2023-04-15T18:51:56.597Z,100.00
2023-04-15T18:54:24.787Z,100.00
2023-04-15T18:56:53.156Z,100.00
2023-04-15T18:59:28.792Z,100.00
2023-04-15T19:01:59.980Z,100.00
2023-04-15T19:04:31.533Z,100.00
2023-04-15T19:06:59.647Z,100.00
2023-04-15T19:09:31.291Z,100.00
2023-04-15T19:11:59.776Z,100.00
2023-04-15T19:14:27.863Z,100.00
2023-04-15T19:16:56.487Z,100.00
2023-04-15T19:19:24.754Z,100.00
2023-04-15T19:21:53.050Z,100.00
2023-04-15T19:24:21.380Z,100.00
2023-04-15T19:26:52.677Z,100.00
2023-04-15T19:29:22.094Z,100.00
2023-04-15T19:31:50.105Z,100.00
2023-04-15T19:34:18.082Z,100.00
2023-04-15T19:36:46.165Z,100.00
2023-04-15T19:39:14.629Z,100.00
2023-04-15T19:41:44.495Z,100.00
2023-04-15T19:44:13.337Z,100.00
2023-04-15T19:46:42.087Z,100.00
2023-04-15T19:49:10.885Z,100.00
2023-04-15T19:51:39.118Z,100.00
2023-04-15T19:54:07.012Z,100.00
2023-04-15T19:56:35.004Z,100.00
2023-04-15T19:59:03.049Z,100.00
2023-04-15T20:01:31.976Z,100.00
2023-04-15T20:04:00.313Z,100.00
2023-04-15T20:06:29.143Z,100.00
2023-04-15T20:08:58.032Z,100.00
2023-04-15T20:12:46.284Z,100.00
2023-04-15T20:14:17.980Z,100.00
2023-04-15T20:16:46.111Z,100.00
2023-04-15T20:19:14.654Z,100.00
2023-04-15T20:21:42.689Z,100.00
2023-04-15T20:24:11.062Z,100.00
2023-04-15T20:26:39.374Z,100.00
2023-04-15T20:29:07.798Z,100.00
2023-04-15T20:31:36.889Z,100.00
2023-04-15T20:34:05.054Z,100.00
2023-04-15T20:36:34.355Z,100.00
2023-04-15T20:39:02.345Z,100.00
2023-04-15T20:41:30.450Z,100.00
2023-04-15T20:43:58.874Z,100.00
2023-04-15T20:46:27.837Z,100.00
2023-04-15T20:48:56.119Z,100.00
2023-04-15T20:51:24.304Z,100.00
2023-04-15T20:53:52.364Z,100.00
2023-04-15T20:56:20.401Z,100.00
2023-04-15T20:58:48.369Z,100.00
2023-04-15T21:01:16.360Z,100.00
2023-04-15T21:03:44.464Z,100.00
2023-04-15T21:06:12.848Z,100.00
2023-04-15T21:08:41.335Z,100.00
2023-04-15T21:11:09.200Z,100.00
2023-04-15T21:13:37.090Z,100.00
2023-04-15T21:16:05.134Z,100.00
2023-04-15T21:18:33.480Z,100.00
2023-04-15T21:21:02.004Z,100.00
2023-04-15T21:23:30.372Z,100.00
2023-04-15T21:25:58.602Z,100.00
2023-04-15T21:28:28.162Z,100.00
2023-04-15T21:30:57.022Z,100.00
2023-04-15T21:33:25.222Z,100.00
2023-04-15T21:35:53.538Z,100.00
2023-04-15T21:38:23.394Z,100.00
2023-04-15T21:40:51.680Z,100.00
2023-04-15T21:43:22.872Z,100.00
2023-04-15T21:46:21.261Z,100.00
2023-04-15T21:48:41.923Z,100.00
2023-04-15T21:51:09.791Z,100.00
2023-04-15T21:53:37.753Z,100.00
2023-04-15T21:56:08.220Z,100.00
2023-04-15T21:58:36.114Z,100.00
2023-04-15T22:01:04.543Z,100.00
2023-04-15T22:03:34.280Z,100.00
2023-04-15T22:06:03.125Z,100.00
2023-04-15T22:08:38.168Z,100.00
2023-04-15T22:11:09.879Z,100.00
2023-04-15T22:13:38.223Z,100.00
2023-04-15T22:16:08.570Z,100.00
2023-04-15T22:18:36.605Z,100.00
2023-04-15T22:21:04.491Z,100.00
2023-04-15T22:23:32.399Z,100.00
2023-04-15T22:26:00.692Z,100.00
2023-04-15T22:28:28.467Z,100.00
2023-04-15T22:30:58.199Z,100.00
2023-04-15T22:33:27.054Z,100.00
2023-04-15T22:35:54.968Z,100.00
2023-04-15T22:38:22.808Z,100.00
2023-04-15T22:40:53.938Z,100.00
2023-04-15T22:43:22.294Z,100.00
2023-04-15T22:45:51.023Z,100.00
2023-04-15T22:48:19.999Z,100.00
2023-04-15T22:50:48.493Z,100.00
2023-04-15T22:53:17.559Z,100.00
2023-04-15T22:55:46.724Z,100.00
2023-04-15T22:58:16.145Z,100.00
2023-04-15T23:00:44.785Z,100.00
2023-04-15T23:03:12.749Z,100.00
2023-04-15T23:05:41.380Z,100.00
2023-04-15T23:08:09.577Z,100.00
2023-04-15T23:10:40.078Z,100.00
2023-04-15T23:13:08.020Z,100.00
2023-04-15T23:15:36.079Z,100.00
2023-04-15T23:18:03.955Z,100.00
2023-04-15T23:20:32.002Z,100.00
2023-04-15T23:22:59.955Z,100.00
2023-04-15T23:25:27.988Z,100.00
2023-04-15T23:27:55.925Z,100.00
2023-04-15T23:30:23.806Z,100.00
2023-04-15T23:32:51.976Z,100.00
2023-04-15T23:35:19.832Z,100.00
2023-04-15T23:37:47.764Z,100.00
2023-04-15T23:40:15.934Z,100.00
2023-04-15T23:42:44.361Z,100.00
2023-04-15T23:45:12.590Z,100.00
2023-04-15T23:47:40.849Z,100.00
2023-04-15T23:50:09.250Z,100.00
2023-04-15T23:52:37.588Z,100.00
2023-04-15T23:55:06.054Z,100.00
2023-04-15T23:59:34.197Z,100.00
